sensor_id;sensor_type;location;lat;lon;timestamp;P1;durP1;ratioP1;P2;durP2;ratioP2
60368;SDS011;46208;44.634;10.492;2022-07-21T00:02:36;3.05;;;1.95;;
60368;SDS011;46208;44.634;10.492;2022-07-21T00:05:40;3.95;;;1.70;;
60368;SDS011;46208;44.634;10.492;2022-07-21T00:08:44;1.70;;;1.58;;
60368;SDS011;46208;44.634;10.492;2022-07-21T00:11:48;2.70;;;2.08;;
60368;SDS011;46208;44.634;10.492;2022-07-21T00:14:52;2.50;;;2.30;;
60368;SDS011;46208;44.634;10.492;2022-07-21T00:17:56;2.10;;;1.90;;
60368;SDS011;46208;44.634;10.492;2022-07-21T00:21:00;3.13;;;2.30;;
60368;SDS011;46208;44.634;10.492;2022-07-21T00:24:04;2.00;;;1.90;;
60368;SDS011;46208;44.634;10.492;2022-07-21T00:27:08;3.35;;;1.73;;
60368;SDS011;46208;44.634;10.492;2022-07-21T00:30:12;2.28;;;1.65;;
60368;SDS011;46208;44.634;10.492;2022-07-21T00:33:16;2.28;;;1.98;;
60368;SDS011;46208;44.634;10.492;2022-07-21T00:36:21;2.50;;;1.70;;
60368;SDS011;46208;44.634;10.492;2022-07-21T00:39:25;3.70;;;2.33;;
60368;SDS011;46208;44.634;10.492;2022-07-21T00:42:30;2.38;;;2.15;;
60368;SDS011;46208;44.634;10.492;2022-07-21T00:45:35;2.13;;;2.03;;
60368;SDS011;46208;44.634;10.492;2022-07-21T00:48:38;3.22;;;2.25;;
60368;SDS011;46208;44.634;10.492;2022-07-21T00:51:42;3.72;;;2.30;;
60368;SDS011;46208;44.634;10.492;2022-07-21T00:54:46;2.40;;;1.85;;
60368;SDS011;46208;44.634;10.492;2022-07-21T00:57:51;3.03;;;2.47;;
60368;SDS011;46208;44.634;10.492;2022-07-21T01:00:56;4.30;;;2.25;;
60368;SDS011;46208;44.634;10.492;2022-07-21T01:04:00;3.45;;;2.03;;
60368;SDS011;46208;44.634;10.492;2022-07-21T01:07:04;2.47;;;2.22;;
60368;SDS011;46208;44.634;10.492;2022-07-21T01:10:09;2.58;;;1.92;;
60368;SDS011;46208;44.634;10.492;2022-07-21T01:13:14;1.85;;;1.75;;
60368;SDS011;46208;44.634;10.492;2022-07-21T01:16:18;1.95;;;1.83;;
60368;SDS011;46208;44.634;10.492;2022-07-21T01:19:21;2.60;;;1.85;;
60368;SDS011;46208;44.634;10.492;2022-07-21T01:22:25;3.00;;;2.13;;
60368;SDS011;46208;44.634;10.492;2022-07-21T01:25:29;2.95;;;2.65;;
60368;SDS011;46208;44.634;10.492;2022-07-21T01:28:33;2.47;;;1.98;;
60368;SDS011;46208;44.634;10.492;2022-07-21T01:31:38;2.72;;;2.35;;
60368;SDS011;46208;44.634;10.492;2022-07-21T01:34:44;2.45;;;2.00;;
60368;SDS011;46208;44.634;10.492;2022-07-21T01:37:47;4.07;;;1.80;;
60368;SDS011;46208;44.634;10.492;2022-07-21T01:40:55;3.50;;;2.25;;
60368;SDS011;46208;44.634;10.492;2022-07-21T01:44:19;3.92;;;2.50;;
60368;SDS011;46208;44.634;10.492;2022-07-21T01:47:23;2.40;;;1.88;;
60368;SDS011;46208;44.634;10.492;2022-07-21T01:50:27;3.17;;;2.17;;
60368;SDS011;46208;44.634;10.492;2022-07-21T01:53:31;4.90;;;2.22;;
60368;SDS011;46208;44.634;10.492;2022-07-21T01:56:35;2.00;;;1.90;;
60368;SDS011;46208;44.634;10.492;2022-07-21T01:59:39;2.10;;;2.00;;
60368;SDS011;46208;44.634;10.492;2022-07-21T02:02:43;3.10;;;2.13;;
60368;SDS011;46208;44.634;10.492;2022-07-21T02:05:47;2.30;;;2.03;;
60368;SDS011;46208;44.634;10.492;2022-07-21T02:08:51;3.03;;;2.30;;
60368;SDS011;46208;44.634;10.492;2022-07-21T02:11:54;2.55;;;2.28;;
60368;SDS011;46208;44.634;10.492;2022-07-21T02:14:58;4.63;;;2.25;;
60368;SDS011;46208;44.634;10.492;2022-07-21T02:18:02;2.58;;;2.20;;
60368;SDS011;46208;44.634;10.492;2022-07-21T02:21:06;2.35;;;2.17;;
60368;SDS011;46208;44.634;10.492;2022-07-21T02:24:10;3.15;;;2.20;;
60368;SDS011;46208;44.634;10.492;2022-07-21T02:27:13;4.03;;;2.72;;
60368;SDS011;46208;44.634;10.492;2022-07-21T02:30:17;2.92;;;2.10;;
60368;SDS011;46208;44.634;10.492;2022-07-21T02:33:21;3.58;;;2.25;;
60368;SDS011;46208;44.634;10.492;2022-07-21T02:36:25;3.20;;;2.55;;
60368;SDS011;46208;44.634;10.492;2022-07-21T02:39:29;5.15;;;3.08;;
60368;SDS011;46208;44.634;10.492;2022-07-21T02:42:32;3.38;;;2.65;;
60368;SDS011;46208;44.634;10.492;2022-07-21T02:45:36;3.60;;;2.58;;
60368;SDS011;46208;44.634;10.492;2022-07-21T02:48:40;3.13;;;2.80;;
60368;SDS011;46208;44.634;10.492;2022-07-21T02:51:44;4.18;;;2.63;;
60368;SDS011;46208;44.634;10.492;2022-07-21T02:54:47;3.45;;;2.58;;
60368;SDS011;46208;44.634;10.492;2022-07-21T03:01:08;3.38;;;2.60;;
60368;SDS011;46208;44.634;10.492;2022-07-21T03:04:11;7.78;;;3.47;;
60368;SDS011;46208;44.634;10.492;2022-07-21T03:07:15;3.47;;;3.00;;
60368;SDS011;46208;44.634;10.492;2022-07-21T03:10:19;4.90;;;2.88;;
60368;SDS011;46208;44.634;10.492;2022-07-21T03:13:23;3.97;;;2.95;;
60368;SDS011;46208;44.634;10.492;2022-07-21T03:16:27;4.78;;;3.17;;
60368;SDS011;46208;44.634;10.492;2022-07-21T03:19:31;3.55;;;2.67;;
60368;SDS011;46208;44.634;10.492;2022-07-21T03:22:34;5.00;;;2.95;;
60368;SDS011;46208;44.634;10.492;2022-07-21T03:25:38;5.07;;;2.80;;
60368;SDS011;46208;44.634;10.492;2022-07-21T03:28:42;3.13;;;2.85;;
60368;SDS011;46208;44.634;10.492;2022-07-21T03:31:46;3.50;;;2.90;;
60368;SDS011;46208;44.634;10.492;2022-07-21T03:34:50;3.22;;;2.60;;
60368;SDS011;46208;44.634;10.492;2022-07-21T03:37:55;3.42;;;2.83;;
60368;SDS011;46208;44.634;10.492;2022-07-21T03:41:00;3.63;;;2.55;;
60368;SDS011;46208;44.634;10.492;2022-07-21T03:44:04;2.75;;;2.22;;
60368;SDS011;46208;44.634;10.492;2022-07-21T03:47:09;3.20;;;2.72;;
60368;SDS011;46208;44.634;10.492;2022-07-21T03:50:13;5.20;;;2.55;;
60368;SDS011;46208;44.634;10.492;2022-07-21T03:53:18;5.10;;;3.17;;
60368;SDS011;46208;44.634;10.492;2022-07-21T03:56:21;3.15;;;2.60;;
60368;SDS011;46208;44.634;10.492;2022-07-21T03:59:25;4.03;;;2.97;;
60368;SDS011;46208;44.634;10.492;2022-07-21T04:02:29;4.78;;;3.03;;
60368;SDS011;46208;44.634;10.492;2022-07-21T04:05:33;7.20;;;2.90;;
60368;SDS011;46208;44.634;10.492;2022-07-21T04:08:38;3.83;;;2.72;;
60368;SDS011;46208;44.634;10.492;2022-07-21T04:11:42;5.90;;;3.28;;
60368;SDS011;46208;44.634;10.492;2022-07-21T04:14:46;5.18;;;3.85;;
60368;SDS011;46208;44.634;10.492;2022-07-21T04:17:50;4.72;;;2.63;;
60368;SDS011;46208;44.634;10.492;2022-07-21T04:20:54;2.90;;;2.60;;
60368;SDS011;46208;44.634;10.492;2022-07-21T04:23:57;3.78;;;2.63;;
60368;SDS011;46208;44.634;10.492;2022-07-21T04:27:01;4.35;;;2.78;;
60368;SDS011;46208;44.634;10.492;2022-07-21T04:30:06;3.85;;;2.55;;
60368;SDS011;46208;44.634;10.492;2022-07-21T04:33:11;5.43;;;3.20;;
60368;SDS011;46208;44.634;10.492;2022-07-21T04:36:15;10.40;;;3.10;;
60368;SDS011;46208;44.634;10.492;2022-07-21T04:39:19;3.33;;;2.83;;
60368;SDS011;46208;44.634;10.492;2022-07-21T04:42:22;2.97;;;2.50;;
60368;SDS011;46208;44.634;10.492;2022-07-21T04:45:26;2.70;;;2.20;;
60368;SDS011;46208;44.634;10.492;2022-07-21T04:48:30;6.65;;;3.00;;
60368;SDS011;46208;44.634;10.492;2022-07-21T04:51:34;4.43;;;2.78;;
60368;SDS011;46208;44.634;10.492;2022-07-21T04:54:37;6.38;;;3.65;;
60368;SDS011;46208;44.634;10.492;2022-07-21T04:57:42;5.10;;;3.30;;
60368;SDS011;46208;44.634;10.492;2022-07-21T05:00:48;3.65;;;2.80;;
60368;SDS011;46208;44.634;10.492;2022-07-21T05:03:52;4.22;;;3.22;;
60368;SDS011;46208;44.634;10.492;2022-07-21T05:06:56;5.75;;;2.47;;
60368;SDS011;46208;44.634;10.492;2022-07-21T05:10:03;3.97;;;2.72;;
60368;SDS011;46208;44.634;10.492;2022-07-21T05:13:08;3.13;;;2.80;;
60368;SDS011;46208;44.634;10.492;2022-07-21T05:16:12;3.83;;;2.95;;
60368;SDS011;46208;44.634;10.492;2022-07-21T05:19:16;5.60;;;3.08;;
60368;SDS011;46208;44.634;10.492;2022-07-21T05:22:19;5.80;;;2.47;;
60368;SDS011;46208;44.634;10.492;2022-07-21T05:25:23;4.50;;;3.00;;
60368;SDS011;46208;44.634;10.492;2022-07-21T05:28:28;4.20;;;2.72;;
60368;SDS011;46208;44.634;10.492;2022-07-21T05:31:32;3.97;;;3.05;;
60368;SDS011;46208;44.634;10.492;2022-07-21T05:34:36;4.40;;;3.30;;
60368;SDS011;46208;44.634;10.492;2022-07-21T05:37:40;5.45;;;3.42;;
60368;SDS011;46208;44.634;10.492;2022-07-21T05:40:44;5.22;;;2.95;;
60368;SDS011;46208;44.634;10.492;2022-07-21T05:43:48;3.58;;;2.85;;
60368;SDS011;46208;44.634;10.492;2022-07-21T05:46:52;4.03;;;2.88;;
60368;SDS011;46208;44.634;10.492;2022-07-21T05:49:55;6.28;;;3.80;;
60368;SDS011;46208;44.634;10.492;2022-07-21T05:53:01;4.53;;;3.25;;
60368;SDS011;46208;44.634;10.492;2022-07-21T05:56:04;4.82;;;3.70;;
60368;SDS011;46208;44.634;10.492;2022-07-21T05:59:08;4.50;;;3.58;;
60368;SDS011;46208;44.634;10.492;2022-07-21T06:02:12;4.55;;;3.80;;
60368;SDS011;46208;44.634;10.492;2022-07-21T06:05:16;5.28;;;3.83;;
60368;SDS011;46208;44.634;10.492;2022-07-21T06:08:20;4.82;;;3.70;;
60368;SDS011;46208;44.634;10.492;2022-07-21T06:11:24;7.13;;;3.83;;
60368;SDS011;46208;44.634;10.492;2022-07-21T06:14:28;7.32;;;4.25;;
60368;SDS011;46208;44.634;10.492;2022-07-21T06:17:37;6.07;;;4.00;;
60368;SDS011;46208;44.634;10.492;2022-07-21T06:20:47;5.10;;;4.00;;
60368;SDS011;46208;44.634;10.492;2022-07-21T06:23:51;4.80;;;4.07;;
60368;SDS011;46208;44.634;10.492;2022-07-21T06:26:56;6.68;;;4.45;;
60368;SDS011;46208;44.634;10.492;2022-07-21T06:29:59;5.35;;;3.72;;
60368;SDS011;46208;44.634;10.492;2022-07-21T06:33:04;6.57;;;4.65;;
60368;SDS011;46208;44.634;10.492;2022-07-21T06:36:07;7.95;;;4.68;;
60368;SDS011;46208;44.634;10.492;2022-07-21T06:39:11;5.43;;;4.25;;
60368;SDS011;46208;44.634;10.492;2022-07-21T06:42:15;6.45;;;3.83;;
60368;SDS011;46208;44.634;10.492;2022-07-21T06:45:19;4.28;;;3.88;;
60368;SDS011;46208;44.634;10.492;2022-07-21T06:48:23;6.82;;;4.13;;
60368;SDS011;46208;44.634;10.492;2022-07-21T06:51:28;5.47;;;4.13;;
60368;SDS011;46208;44.634;10.492;2022-07-21T06:54:32;5.32;;;3.80;;
60368;SDS011;46208;44.634;10.492;2022-07-21T06:57:35;6.07;;;4.07;;
60368;SDS011;46208;44.634;10.492;2022-07-21T07:00:39;5.72;;;4.35;;
60368;SDS011;46208;44.634;10.492;2022-07-21T07:03:43;7.43;;;4.07;;
60368;SDS011;46208;44.634;10.492;2022-07-21T07:06:47;10.10;;;4.45;;
60368;SDS011;46208;44.634;10.492;2022-07-21T07:09:55;7.95;;;3.60;;
60368;SDS011;46208;44.634;10.492;2022-07-21T07:12:58;6.57;;;4.15;;
60368;SDS011;46208;44.634;10.492;2022-07-21T07:16:02;5.65;;;4.20;;
60368;SDS011;46208;44.634;10.492;2022-07-21T07:19:06;5.82;;;4.15;;
60368;SDS011;46208;44.634;10.492;2022-07-21T07:22:10;5.35;;;4.32;;
60368;SDS011;46208;44.634;10.492;2022-07-21T07:25:14;6.47;;;4.10;;
60368;SDS011;46208;44.634;10.492;2022-07-21T07:28:20;5.03;;;4.53;;
60368;SDS011;46208;44.634;10.492;2022-07-21T07:31:24;7.85;;;4.20;;
60368;SDS011;46208;44.634;10.492;2022-07-21T07:34:28;8.48;;;4.85;;
60368;SDS011;46208;44.634;10.492;2022-07-21T07:37:33;7.00;;;4.13;;
60368;SDS011;46208;44.634;10.492;2022-07-21T07:40:38;5.70;;;4.35;;
60368;SDS011;46208;44.634;10.492;2022-07-21T07:43:41;7.72;;;4.70;;
60368;SDS011;46208;44.634;10.492;2022-07-21T07:46:45;8.38;;;4.95;;
60368;SDS011;46208;44.634;10.492;2022-07-21T07:49:49;9.68;;;5.65;;
60368;SDS011;46208;44.634;10.492;2022-07-21T07:52:54;9.00;;;4.90;;
60368;SDS011;46208;44.634;10.492;2022-07-21T07:55:57;4.43;;;4.00;;
60368;SDS011;46208;44.634;10.492;2022-07-21T07:59:01;6.50;;;4.63;;
60368;SDS011;46208;44.634;10.492;2022-07-21T08:02:05;6.07;;;4.88;;
60368;SDS011;46208;44.634;10.492;2022-07-21T08:05:09;5.97;;;4.45;;
60368;SDS011;46208;44.634;10.492;2022-07-21T08:08:13;6.07;;;4.85;;
60368;SDS011;46208;44.634;10.492;2022-07-21T08:11:17;6.88;;;4.35;;
60368;SDS011;46208;44.634;10.492;2022-07-21T08:14:20;6.05;;;4.53;;
60368;SDS011;46208;44.634;10.492;2022-07-21T08:17:24;6.68;;;4.68;;
60368;SDS011;46208;44.634;10.492;2022-07-21T08:20:28;9.68;;;4.85;;
60368;SDS011;46208;44.634;10.492;2022-07-21T08:23:32;7.35;;;5.10;;
60368;SDS011;46208;44.634;10.492;2022-07-21T08:26:35;6.72;;;4.65;;
60368;SDS011;46208;44.634;10.492;2022-07-21T08:29:39;8.05;;;5.13;;
60368;SDS011;46208;44.634;10.492;2022-07-21T08:32:43;5.97;;;5.03;;
60368;SDS011;46208;44.634;10.492;2022-07-21T08:35:47;5.95;;;4.68;;
60368;SDS011;46208;44.634;10.492;2022-07-21T08:38:51;6.80;;;5.25;;
60368;SDS011;46208;44.634;10.492;2022-07-21T08:41:55;5.95;;;5.35;;
60368;SDS011;46208;44.634;10.492;2022-07-21T08:44:58;7.28;;;5.07;;
60368;SDS011;46208;44.634;10.492;2022-07-21T08:48:03;5.10;;;4.53;;
60368;SDS011;46208;44.634;10.492;2022-07-21T08:51:07;6.68;;;4.53;;
60368;SDS011;46208;44.634;10.492;2022-07-21T08:54:11;8.00;;;5.00;;
60368;SDS011;46208;44.634;10.492;2022-07-21T08:57:15;7.50;;;5.30;;
60368;SDS011;46208;44.634;10.492;2022-07-21T09:00:20;6.35;;;4.70;;
60368;SDS011;46208;44.634;10.492;2022-07-21T09:03:24;8.70;;;5.03;;
60368;SDS011;46208;44.634;10.492;2022-07-21T09:06:29;7.60;;;4.47;;
60368;SDS011;46208;44.634;10.492;2022-07-21T09:09:34;4.90;;;4.15;;
60368;SDS011;46208;44.634;10.492;2022-07-21T09:12:48;6.20;;;5.30;;
60368;SDS011;46208;44.634;10.492;2022-07-21T09:15:53;8.57;;;4.90;;
60368;SDS011;46208;44.634;10.492;2022-07-21T09:18:57;7.18;;;5.03;;
60368;SDS011;46208;44.634;10.492;2022-07-21T09:22:02;7.63;;;4.60;;
60368;SDS011;46208;44.634;10.492;2022-07-21T09:25:09;5.40;;;4.20;;
60368;SDS011;46208;44.634;10.492;2022-07-21T09:31:19;7.38;;;4.97;;
60368;SDS011;46208;44.634;10.492;2022-07-21T09:34:23;6.25;;;4.47;;
60368;SDS011;46208;44.634;10.492;2022-07-21T09:37:27;4.55;;;4.07;;
60368;SDS011;46208;44.634;10.492;2022-07-21T09:40:31;9.00;;;4.88;;
60368;SDS011;46208;44.634;10.492;2022-07-21T09:43:36;7.65;;;4.72;;
60368;SDS011;46208;44.634;10.492;2022-07-21T09:46:44;6.80;;;4.75;;
60368;SDS011;46208;44.634;10.492;2022-07-21T09:49:48;8.02;;;4.97;;
60368;SDS011;46208;44.634;10.492;2022-07-21T09:52:53;4.68;;;4.20;;
60368;SDS011;46208;44.634;10.492;2022-07-21T09:55:57;6.80;;;4.78;;
60368;SDS011;46208;44.634;10.492;2022-07-21T09:59:01;5.53;;;4.15;;
60368;SDS011;46208;44.634;10.492;2022-07-21T10:02:05;4.53;;;4.10;;
60368;SDS011;46208;44.634;10.492;2022-07-21T10:05:10;4.47;;;3.78;;
60368;SDS011;46208;44.634;10.492;2022-07-21T10:08:16;4.15;;;3.75;;
60368;SDS011;46208;44.634;10.492;2022-07-21T10:11:20;4.57;;;4.00;;
60368;SDS011;46208;44.634;10.492;2022-07-21T10:14:25;4.63;;;3.72;;
60368;SDS011;46208;44.634;10.492;2022-07-21T10:17:29;3.55;;;3.25;;
60368;SDS011;46208;44.634;10.492;2022-07-21T10:20:34;3.65;;;3.15;;
60368;SDS011;46208;44.634;10.492;2022-07-21T10:23:41;3.17;;;2.95;;
60368;SDS011;46208;44.634;10.492;2022-07-21T10:30:38;3.45;;;3.15;;
60368;SDS011;46208;44.634;10.492;2022-07-21T10:36:49;3.03;;;2.78;;
60368;SDS011;46208;44.634;10.492;2022-07-21T10:39:53;4.40;;;2.78;;
60368;SDS011;46208;44.634;10.492;2022-07-21T10:46:04;3.47;;;3.17;;
60368;SDS011;46208;44.634;10.492;2022-07-21T10:56:03;3.05;;;2.83;;
60368;SDS011;46208;44.634;10.492;2022-07-21T10:59:07;3.28;;;2.97;;
60368;SDS011;46208;44.634;10.492;2022-07-21T11:02:24;3.97;;;2.95;;
60368;SDS011;46208;44.634;10.492;2022-07-21T11:05:30;2.92;;;2.70;;
60368;SDS011;46208;44.634;10.492;2022-07-21T11:08:51;3.25;;;2.55;;
60368;SDS011;46208;44.634;10.492;2022-07-21T11:11:59;2.72;;;2.47;;
60368;SDS011;46208;44.634;10.492;2022-07-21T11:15:05;2.80;;;2.60;;
60368;SDS011;46208;44.634;10.492;2022-07-21T11:18:09;3.95;;;2.47;;
60368;SDS011;46208;44.634;10.492;2022-07-21T11:21:13;4.40;;;3.67;;
60368;SDS011;46208;44.634;10.492;2022-07-21T11:24:19;3.08;;;2.80;;
60368;SDS011;46208;44.634;10.492;2022-07-21T11:27:25;3.20;;;2.67;;
60368;SDS011;46208;44.634;10.492;2022-07-21T11:30:30;2.50;;;2.10;;
60368;SDS011;46208;44.634;10.492;2022-07-21T11:33:41;3.53;;;3.00;;
60368;SDS011;46208;44.634;10.492;2022-07-21T11:36:46;2.35;;;2.25;;
60368;SDS011;46208;44.634;10.492;2022-07-21T11:39:49;2.88;;;2.33;;
60368;SDS011;46208;44.634;10.492;2022-07-21T11:42:53;2.50;;;2.30;;
60368;SDS011;46208;44.634;10.492;2022-07-21T11:45:58;2.95;;;2.63;;
60368;SDS011;46208;44.634;10.492;2022-07-21T11:49:05;2.60;;;2.05;;
60368;SDS011;46208;44.634;10.492;2022-07-21T11:52:11;3.88;;;2.35;;
60368;SDS011;46208;44.634;10.492;2022-07-21T11:55:20;4.18;;;2.70;;
60368;SDS011;46208;44.634;10.492;2022-07-21T11:58:24;2.60;;;2.17;;
60368;SDS011;46208;44.634;10.492;2022-07-21T12:01:28;2.97;;;2.72;;
60368;SDS011;46208;44.634;10.492;2022-07-21T12:04:33;8.45;;;2.58;;
60368;SDS011;46208;44.634;10.492;2022-07-21T12:07:43;2.55;;;2.30;;
60368;SDS011;46208;44.634;10.492;2022-07-21T12:10:49;3.45;;;2.85;;
60368;SDS011;46208;44.634;10.492;2022-07-21T12:13:57;3.05;;;2.75;;
60368;SDS011;46208;44.634;10.492;2022-07-21T12:17:02;3.53;;;2.47;;
60368;SDS011;46208;44.634;10.492;2022-07-21T12:20:06;2.97;;;2.67;;
60368;SDS011;46208;44.634;10.492;2022-07-21T12:23:27;8.73;;;2.95;;
60368;SDS011;46208;44.634;10.492;2022-07-21T12:26:32;2.78;;;2.55;;
60368;SDS011;46208;44.634;10.492;2022-07-21T12:29:36;2.08;;;1.98;;
60368;SDS011;46208;44.634;10.492;2022-07-21T12:32:41;2.75;;;2.50;;
60368;SDS011;46208;44.634;10.492;2022-07-21T12:35:45;2.90;;;2.60;;
60368;SDS011;46208;44.634;10.492;2022-07-21T12:39:13;2.65;;;1.70;;
60368;SDS011;46208;44.634;10.492;2022-07-21T12:49:03;1.80;;;1.70;;
60368;SDS011;46208;44.634;10.492;2022-07-21T12:52:07;2.97;;;2.10;;
60368;SDS011;46208;44.634;10.492;2022-07-21T12:55:11;2.15;;;1.70;;
60368;SDS011;46208;44.634;10.492;2022-07-21T12:58:15;1.85;;;1.70;;
60368;SDS011;46208;44.634;10.492;2022-07-21T13:01:19;4.15;;;2.95;;
60368;SDS011;46208;44.634;10.492;2022-07-21T13:04:24;3.17;;;1.90;;
60368;SDS011;46208;44.634;10.492;2022-07-21T13:07:29;3.92;;;1.80;;
60368;SDS011;46208;44.634;10.492;2022-07-21T13:10:33;3.17;;;1.98;;
60368;SDS011;46208;44.634;10.492;2022-07-21T13:13:37;2.10;;;1.90;;
60368;SDS011;46208;44.634;10.492;2022-07-21T13:16:41;1.80;;;1.70;;
60368;SDS011;46208;44.634;10.492;2022-07-21T13:19:45;2.45;;;1.63;;
60368;SDS011;46208;44.634;10.492;2022-07-21T13:22:49;3.97;;;2.33;;
60368;SDS011;46208;44.634;10.492;2022-07-21T13:25:52;6.32;;;4.15;;
60368;SDS011;46208;44.634;10.492;2022-07-21T13:28:56;3.67;;;2.00;;
60368;SDS011;46208;44.634;10.492;2022-07-21T13:32:00;2.25;;;1.92;;
60368;SDS011;46208;44.634;10.492;2022-07-21T13:35:05;2.33;;;2.00;;
60368;SDS011;46208;44.634;10.492;2022-07-21T13:38:09;2.15;;;1.90;;
60368;SDS011;46208;44.634;10.492;2022-07-21T13:41:13;2.25;;;2.05;;
60368;SDS011;46208;44.634;10.492;2022-07-21T13:44:20;2.10;;;1.88;;
60368;SDS011;46208;44.634;10.492;2022-07-21T13:47:24;2.40;;;2.10;;
60368;SDS011;46208;44.634;10.492;2022-07-21T13:50:28;1.65;;;1.50;;
60368;SDS011;46208;44.634;10.492;2022-07-21T13:53:31;3.47;;;2.20;;
60368;SDS011;46208;44.634;10.492;2022-07-21T13:56:36;2.88;;;2.22;;
60368;SDS011;46208;44.634;10.492;2022-07-21T13:59:39;2.17;;;1.98;;
60368;SDS011;46208;44.634;10.492;2022-07-21T14:02:44;2.47;;;2.00;;
60368;SDS011;46208;44.634;10.492;2022-07-21T14:05:49;1.80;;;1.70;;
60368;SDS011;46208;44.634;10.492;2022-07-21T14:08:52;2.03;;;1.83;;
60368;SDS011;46208;44.634;10.492;2022-07-21T14:11:56;2.00;;;1.83;;
60368;SDS011;46208;44.634;10.492;2022-07-21T14:15:00;2.13;;;2.03;;
60368;SDS011;46208;44.634;10.492;2022-07-21T14:18:04;3.10;;;1.92;;
60368;SDS011;46208;44.634;10.492;2022-07-21T14:21:08;2.60;;;2.40;;
60368;SDS011;46208;44.634;10.492;2022-07-21T14:24:12;3.15;;;2.50;;
60368;SDS011;46208;44.634;10.492;2022-07-21T14:27:34;2.72;;;2.53;;
60368;SDS011;46208;44.634;10.492;2022-07-21T14:30:38;2.30;;;2.10;;
60368;SDS011;46208;44.634;10.492;2022-07-21T14:33:42;2.35;;;2.20;;
60368;SDS011;46208;44.634;10.492;2022-07-21T14:36:46;2.58;;;2.30;;
60368;SDS011;46208;44.634;10.492;2022-07-21T14:39:50;2.55;;;2.35;;
60368;SDS011;46208;44.634;10.492;2022-07-21T14:42:54;2.53;;;2.33;;
60368;SDS011;46208;44.634;10.492;2022-07-21T14:45:58;3.40;;;2.60;;
60368;SDS011;46208;44.634;10.492;2022-07-21T14:49:02;3.22;;;2.70;;
60368;SDS011;46208;44.634;10.492;2022-07-21T14:52:06;3.17;;;2.90;;
60368;SDS011;46208;44.634;10.492;2022-07-21T14:55:12;7.03;;;3.03;;
60368;SDS011;46208;44.634;10.492;2022-07-21T14:58:16;4.05;;;3.67;;
60368;SDS011;46208;44.634;10.492;2022-07-21T15:01:20;2.75;;;2.55;;
60368;SDS011;46208;44.634;10.492;2022-07-21T15:04:24;3.00;;;2.75;;
60368;SDS011;46208;44.634;10.492;2022-07-21T15:07:27;2.88;;;2.63;;
60368;SDS011;46208;44.634;10.492;2022-07-21T15:10:31;3.13;;;2.78;;
60368;SDS011;46208;44.634;10.492;2022-07-21T15:13:35;2.83;;;2.58;;
60368;SDS011;46208;44.634;10.492;2022-07-21T15:16:39;3.05;;;2.53;;
60368;SDS011;46208;44.634;10.492;2022-07-21T15:19:43;2.75;;;2.55;;
60368;SDS011;46208;44.634;10.492;2022-07-21T15:22:47;3.65;;;3.00;;
60368;SDS011;46208;44.634;10.492;2022-07-21T15:25:51;3.55;;;2.80;;
60368;SDS011;46208;44.634;10.492;2022-07-21T15:28:55;3.25;;;2.47;;
60368;SDS011;46208;44.634;10.492;2022-07-21T15:31:58;1.92;;;1.83;;
60368;SDS011;46208;44.634;10.492;2022-07-21T15:35:02;3.10;;;2.55;;
60368;SDS011;46208;44.634;10.492;2022-07-21T15:38:07;5.30;;;2.67;;
60368;SDS011;46208;44.634;10.492;2022-07-21T15:41:10;2.30;;;2.10;;
60368;SDS011;46208;44.634;10.492;2022-07-21T15:44:14;2.17;;;2.05;;
60368;SDS011;46208;44.634;10.492;2022-07-21T15:47:18;2.65;;;2.15;;
60368;SDS011;46208;44.634;10.492;2022-07-21T15:50:22;2.85;;;2.15;;
60368;SDS011;46208;44.634;10.492;2022-07-21T15:53:26;2.40;;;2.20;;
60368;SDS011;46208;44.634;10.492;2022-07-21T15:56:29;1.70;;;1.60;;
60368;SDS011;46208;44.634;10.492;2022-07-21T15:59:33;2.80;;;2.30;;
60368;SDS011;46208;44.634;10.492;2022-07-21T16:02:37;3.08;;;2.50;;
60368;SDS011;46208;44.634;10.492;2022-07-21T16:05:44;2.53;;;2.00;;
60368;SDS011;46208;44.634;10.492;2022-07-21T16:08:47;3.15;;;2.33;;
60368;SDS011;46208;44.634;10.492;2022-07-21T16:11:51;2.33;;;2.13;;
60368;SDS011;46208;44.634;10.492;2022-07-21T16:14:55;2.20;;;2.00;;
60368;SDS011;46208;44.634;10.492;2022-07-21T16:17:59;1.90;;;1.80;;
60368;SDS011;46208;44.634;10.492;2022-07-21T16:21:03;2.95;;;1.80;;
60368;SDS011;46208;44.634;10.492;2022-07-21T16:24:07;2.20;;;1.95;;
60368;SDS011;46208;44.634;10.492;2022-07-21T16:27:11;2.42;;;2.03;;
60368;SDS011;46208;44.634;10.492;2022-07-21T16:30:15;2.53;;;2.33;;
60368;SDS011;46208;44.634;10.492;2022-07-21T16:33:19;2.95;;;2.10;;
60368;SDS011;46208;44.634;10.492;2022-07-21T16:36:23;2.22;;;2.03;;
60368;SDS011;46208;44.634;10.492;2022-07-21T16:39:27;3.47;;;2.25;;
60368;SDS011;46208;44.634;10.492;2022-07-21T16:42:31;2.67;;;2.25;;
60368;SDS011;46208;44.634;10.492;2022-07-21T16:45:35;2.20;;;2.00;;
60368;SDS011;46208;44.634;10.492;2022-07-21T16:48:39;2.67;;;1.95;;
60368;SDS011;46208;44.634;10.492;2022-07-21T16:51:43;3.70;;;1.80;;
60368;SDS011;46208;44.634;10.492;2022-07-21T16:54:47;4.43;;;1.90;;
60368;SDS011;46208;44.634;10.492;2022-07-21T16:57:51;2.28;;;1.90;;
60368;SDS011;46208;44.634;10.492;2022-07-21T17:00:55;4.97;;;2.13;;
60368;SDS011;46208;44.634;10.492;2022-07-21T17:03:59;2.55;;;2.35;;
60368;SDS011;46208;44.634;10.492;2022-07-21T17:07:03;2.58;;;2.17;;
60368;SDS011;46208;44.634;10.492;2022-07-21T17:10:07;3.55;;;2.05;;
60368;SDS011;46208;44.634;10.492;2022-07-21T17:13:11;2.03;;;1.92;;
60368;SDS011;46208;44.634;10.492;2022-07-21T17:16:15;1.75;;;1.65;;
60368;SDS011;46208;44.634;10.492;2022-07-21T17:19:19;1.75;;;1.65;;
60368;SDS011;46208;44.634;10.492;2022-07-21T17:22:22;2.45;;;1.80;;
60368;SDS011;46208;44.634;10.492;2022-07-21T17:25:26;4.28;;;2.33;;
60368;SDS011;46208;44.634;10.492;2022-07-21T17:28:30;1.80;;;1.70;;
60368;SDS011;46208;44.634;10.492;2022-07-21T17:31:35;3.13;;;2.42;;
60368;SDS011;46208;44.634;10.492;2022-07-21T17:34:38;5.43;;;2.75;;
60368;SDS011;46208;44.634;10.492;2022-07-21T17:37:42;4.00;;;2.00;;
60368;SDS011;46208;44.634;10.492;2022-07-21T17:40:46;2.33;;;1.90;;
60368;SDS011;46208;44.634;10.492;2022-07-21T17:43:51;1.90;;;1.75;;
60368;SDS011;46208;44.634;10.492;2022-07-21T17:46:55;1.65;;;1.55;;
60368;SDS011;46208;44.634;10.492;2022-07-21T17:49:59;1.90;;;1.70;;
60368;SDS011;46208;44.634;10.492;2022-07-21T17:53:02;2.33;;;2.13;;
60368;SDS011;46208;44.634;10.492;2022-07-21T17:56:06;4.10;;;2.08;;
60368;SDS011;46208;44.634;10.492;2022-07-21T17:59:10;5.47;;;2.33;;
60368;SDS011;46208;44.634;10.492;2022-07-21T18:02:14;2.63;;;1.90;;
60368;SDS011;46208;44.634;10.492;2022-07-21T18:05:18;7.20;;;2.00;;
60368;SDS011;46208;44.634;10.492;2022-07-21T18:08:22;1.67;;;1.58;;
60368;SDS011;46208;44.634;10.492;2022-07-21T18:11:25;1.80;;;1.70;;
60368;SDS011;46208;44.634;10.492;2022-07-21T18:14:29;2.58;;;2.25;;
60368;SDS011;46208;44.634;10.492;2022-07-21T18:17:33;3.15;;;2.28;;
60368;SDS011;46208;44.634;10.492;2022-07-21T18:20:37;2.65;;;1.73;;
60368;SDS011;46208;44.634;10.492;2022-07-21T18:23:41;1.95;;;1.80;;
60368;SDS011;46208;44.634;10.492;2022-07-21T18:26:44;2.90;;;1.92;;
60368;SDS011;46208;44.634;10.492;2022-07-21T18:29:48;2.33;;;1.90;;
60368;SDS011;46208;44.634;10.492;2022-07-21T18:32:52;3.33;;;2.05;;
60368;SDS011;46208;44.634;10.492;2022-07-21T18:35:56;1.70;;;1.50;;
60368;SDS011;46208;44.634;10.492;2022-07-21T18:39:00;2.17;;;1.65;;
60368;SDS011;46208;44.634;10.492;2022-07-21T18:42:04;1.80;;;1.70;;
60368;SDS011;46208;44.634;10.492;2022-07-21T18:45:08;1.80;;;1.67;;